PWSweather.com
Personal Weather Stations
Station Observations
ITROMSTR4
From Fagereng Towards West Sandnessundet, TromsoeNO 9013

From Fagereng Towards West SandnessundetTromsoeNO 9013

Lat: 69.644853, Lon: 18.908345

Elevation: 150

Station Type: WH-1080

http://www.hugooien.no/?go=weather

Latest ConditionsUpdated 3:00:00 AM GMT+01:01 Sunday, Feb 24, 2019
Currently Today's Max Today's Min Today's Average
Temperature 41.9°F5.5°C 43.9°F6.6°C 41.2°F5.1°C 42.9°F6.1°C
Dew Point 38.0°F3.3°C 38.4°F3.6°C 36.7°F2.6°C 37.8°F3.2°C
Winds 15.3 mph S24.6 kmh S 21.3 mph -34.3 kmh - - 16.5 mph 26.6 kmh
Wind Gusts 25.9 mph41.7 kmh 38.0 mph61.2 kmh - -
Humidity 86% 86% 79% 82%
Pressure 30.76 in1041.7 mb 30.85 in1044.7 mb 30.76 in1041.7 mb -
Precipitation - 0.02 in0.5 mm - -
Hour Temp Dew Point Humidity Winds Wind Gusts Pressure Precip Precip Rate Daily Precip Total
03:00 AM 41.9°F5.5°C 38.0°F3.3°C 86% 15.3 mph S24.6 kmh S 25.9 mph41.7 kmh 30.76 in1041.7 mb 0.01 in0.3 mm 0.00 in0.0 mm 0.02 in0.5 mm
02:55 AM 41.4°F5.2°C 37.2°F2.9°C 85% 15.4 mph SSW24.8 kmh SSW 25.9 mph41.7 kmh 30.76 in1041.7 mb 0.01 in0.3 mm 0.00 in0.0 mm 0.02 in0.5 mm
02:50 AM 41.2°F5.1°C 36.7°F2.6°C 84% 16.0 mph SSW25.7 kmh SSW 23.5 mph37.8 kmh 30.77 in1042.0 mb 0.01 in0.3 mm 0.00 in0.0 mm 0.02 in0.5 mm
02:45 AM 42.1°F5.6°C 37.3°F2.9°C 83% 17.0 mph SSW27.4 kmh SSW 28.9 mph46.5 kmh 30.77 in1042.0 mb 0.01 in0.3 mm 0.00 in0.0 mm 0.02 in0.5 mm
02:40 AM 42.3°F5.7°C 37.5°F3.1°C 83% 18.0 mph SW29.0 kmh SW 28.9 mph46.5 kmh 30.78 in1042.3 mb 0.01 in0.3 mm 0.00 in0.0 mm 0.02 in0.5 mm
02:35 AM 42.8°F6.0°C 37.7°F3.2°C 82% 20.8 mph SW33.5 kmh SW 34.2 mph55.0 kmh 30.77 in1042.0 mb 0.01 in0.3 mm 0.00 in0.0 mm 0.02 in0.5 mm
02:30 AM 43.2°F6.2°C 37.7°F3.2°C 81% 21.3 mph SW34.3 kmh SW 34.2 mph55.0 kmh 30.78 in1042.3 mb 0.01 in0.3 mm 0.00 in0.0 mm 0.02 in0.5 mm
02:25 AM 43.3°F6.3°C 37.9°F3.3°C 81% 21.0 mph SW33.8 kmh SW 38.0 mph61.2 kmh 30.78 in1042.3 mb 0.01 in0.3 mm 0.00 in0.0 mm 0.02 in0.5 mm
02:20 AM 43.3°F6.3°C 37.9°F3.3°C 81% 20.8 mph SW33.5 kmh SW 38.0 mph61.2 kmh 30.78 in1042.3 mb 0.01 in0.3 mm 0.12 in3.0 mm 0.02 in0.5 mm
02:15 AM 43.3°F6.3°C 37.6°F3.1°C 80% 20.1 mph SW32.3 kmh SW 32.0 mph51.5 kmh 30.78 in1042.3 mb 0.00 in0.0 mm 0.00 in0.0 mm 0.01 in0.3 mm
02:10 AM 43.7°F6.5°C 37.9°F3.3°C 80% 20.4 mph SSW32.8 kmh SSW 32.0 mph51.5 kmh 30.78 in1042.3 mb 0.00 in0.0 mm 0.00 in0.0 mm 0.01 in0.3 mm
02:05 AM 43.9°F6.6°C 38.1°F3.4°C 80% 18.6 mph SSW29.9 kmh SSW 32.0 mph51.5 kmh 30.79 in1042.7 mb 0.00 in0.0 mm 0.00 in0.0 mm 0.01 in0.3 mm
02:00 AM 43.5°F6.4°C 37.8°F3.2°C 80% 16.8 mph S27.0 kmh S 28.2 mph45.4 kmh 30.78 in1042.3 mb 0.00 in0.0 mm 0.00 in0.0 mm 0.01 in0.3 mm
01:55 AM 43.7°F6.5°C 37.6°F3.1°C 79% 16.6 mph S26.7 kmh S 28.2 mph45.4 kmh 30.78 in1042.3 mb 0.00 in0.0 mm 0.00 in0.0 mm 0.01 in0.3 mm
01:50 AM 43.7°F6.5°C 37.9°F3.3°C 80% 16.4 mph SW26.4 kmh SW 25.9 mph41.7 kmh 30.79 in1042.7 mb 0.00 in0.0 mm 0.00 in0.0 mm 0.01 in0.3 mm
01:45 AM 43.5°F6.4°C 37.8°F3.2°C 80% 15.7 mph SW25.3 kmh SW 26.6 mph42.8 kmh 30.79 in1042.7 mb 0.00 in0.0 mm 0.00 in0.0 mm 0.01 in0.3 mm
01:40 AM 43.3°F6.3°C 37.9°F3.3°C 81% 16.3 mph SSW26.2 kmh SSW 26.6 mph42.8 kmh 30.79 in1042.7 mb 0.00 in0.0 mm 0.00 in0.0 mm 0.01 in0.3 mm
01:35 AM 43.3°F6.3°C 38.2°F3.4°C 82% 15.3 mph S24.6 kmh S 26.6 mph42.8 kmh 30.79 in1042.7 mb 0.00 in0.0 mm 0.00 in0.0 mm 0.01 in0.3 mm
01:30 AM 42.8°F6.0°C 37.7°F3.2°C 82% 13.4 mph S21.6 kmh S 21.3 mph34.3 kmh 30.80 in1043.0 mb 0.00 in0.0 mm 0.00 in0.0 mm 0.01 in0.3 mm
01:25 AM 42.8°F6.0°C 37.7°F3.2°C 82% 13.5 mph S21.7 kmh S 20.6 mph33.2 kmh 30.80 in1043.0 mb 0.00 in0.0 mm 0.00 in0.0 mm 0.01 in0.3 mm
01:20 AM 42.8°F6.0°C 37.7°F3.2°C 82% 13.5 mph SSW21.7 kmh SSW 23.5 mph37.8 kmh 30.80 in1043.0 mb 0.01 in0.3 mm 0.00 in0.0 mm 0.01 in0.3 mm
01:15 AM 43.0°F6.1°C 37.9°F3.3°C 82% 15.2 mph SSW24.5 kmh SSW 25.9 mph41.7 kmh 30.81 in1043.3 mb 0.01 in0.3 mm 0.00 in0.0 mm 0.01 in0.3 mm
01:10 AM 43.0°F6.1°C 37.9°F3.3°C 82% 15.1 mph S24.3 kmh S 25.9 mph41.7 kmh 30.81 in1043.3 mb 0.01 in0.3 mm 0.00 in0.0 mm 0.01 in0.3 mm
01:05 AM 43.2°F6.2°C 38.4°F3.6°C 83% 13.5 mph S21.7 kmh S 23.5 mph37.8 kmh 30.82 in1043.7 mb 0.01 in0.3 mm 0.00 in0.0 mm 0.01 in0.3 mm
01:00 AM 43.0°F6.1°C 38.2°F3.4°C 83% 13.7 mph S22.0 kmh S 25.1 mph40.4 kmh 30.82 in1043.7 mb 0.01 in0.3 mm 0.00 in0.0 mm 0.01 in0.3 mm
12:55 AM 42.6°F5.9°C 37.5°F3.1°C 82% 17.6 mph SSW28.3 kmh SSW 34.2 mph55.0 kmh 30.82 in1043.7 mb 0.01 in0.3 mm 0.00 in0.0 mm 0.01 in0.3 mm
12:50 AM 42.6°F5.9°C 37.5°F3.1°C 82% 17.1 mph SW27.5 kmh SW 34.2 mph55.0 kmh 30.82 in1043.7 mb 0.01 in0.3 mm 0.00 in0.0 mm 0.01 in0.3 mm
12:45 AM 42.8°F6.0°C 37.7°F3.2°C 82% 16.2 mph SSW26.1 kmh SSW 32.0 mph51.5 kmh 30.82 in1043.7 mb 0.01 in0.3 mm 0.00 in0.0 mm 0.01 in0.3 mm
12:40 AM 43.0°F6.1°C 38.2°F3.4°C 83% 18.4 mph SSW29.6 kmh SSW 32.0 mph51.5 kmh 30.82 in1043.7 mb 0.01 in0.3 mm 0.00 in0.0 mm 0.01 in0.3 mm
12:35 AM 43.0°F6.1°C 38.2°F3.4°C 83% 17.2 mph SSW27.7 kmh SSW 26.6 mph42.8 kmh 30.83 in1044.0 mb 0.01 in0.3 mm 0.00 in0.0 mm 0.01 in0.3 mm
12:30 AM 42.6°F5.9°C 37.8°F3.2°C 83% 15.5 mph SSW24.9 kmh SSW 26.6 mph42.8 kmh 30.84 in1044.4 mb 0.01 in0.3 mm 0.00 in0.0 mm 0.01 in0.3 mm
12:25 AM 42.6°F5.9°C 37.8°F3.2°C 83% 15.1 mph S24.3 kmh S 24.4 mph39.3 kmh 30.84 in1044.4 mb 0.02 in0.5 mm 0.12 in3.0 mm 0.01 in0.3 mm
12:20 AM 42.8°F6.0°C 38.0°F3.3°C 83% 15.6 mph S25.1 kmh S 24.4 mph39.3 kmh 30.84 in1044.4 mb 0.01 in0.3 mm 0.00 in0.0 mm 0.01 in0.3 mm
12:15 AM 42.8°F6.0°C 38.0°F3.3°C 83% 16.1 mph S25.9 kmh S 24.4 mph39.3 kmh 30.84 in1044.4 mb 0.01 in0.3 mm 0.00 in0.0 mm 0.01 in0.3 mm
12:10 AM 43.0°F6.1°C 37.9°F3.3°C 82% 15.2 mph S24.5 kmh S 24.4 mph39.3 kmh 30.84 in1044.4 mb 0.01 in0.3 mm 0.00 in0.0 mm 0.01 in0.3 mm
12:05 AM 43.2°F6.2°C 38.0°F3.3°C 82% 13.0 mph S20.9 kmh S 22.1 mph35.6 kmh 30.85 in1044.7 mb 0.01 in0.3 mm 0.00 in0.0 mm 0.01 in0.3 mm
12:00 AM 42.8°F6.0°C 37.7°F3.2°C 82% 13.9 mph S22.4 kmh S 22.1 mph35.6 kmh 30.85 in1044.7 mb 0.01 in0.3 mm 0.00 in0.0 mm 0.01 in0.3 mm